Time;durP1;ratioP1;P1;durP2;ratioP2;P2;SDS_P1;SDS_P2;PMS_P1;PMS_P2;Temp;Humidity;BMP_temperature;BMP_pressure;BME280_temperature;BME280_humidity;BME280_pressure;Samples;Min_cycle;Max_cycle;Signal;HPM_P1;HPM_P2
2021/11/29 00:00:59;;;;;;;11.37;9.07;;;;;;;9.44;55.13;98868.16;3430609;28;20043;-74
2021/11/29 00:02:46;;;;;;;11.40;8.07;;;;;;;9.41;55.07;98865.91;3430200;28;20381;-74
2021/11/29 00:04:26;;;;;;;11.55;8.27;;;;;;;9.44;55.33;98876.13;3429444;28;20043;-73
2021/11/29 00:06:10;;;;;;;10.82;8.10;;;;;;;9.38;55.01;98867.13;3429238;28;20035;-73
2021/11/29 00:07:51;;;;;;;12.20;8.88;;;;;;;9.41;55.03;98876.53;3430608;28;20045;-72
2021/11/29 00:09:33;;;;;;;10.52;7.75;;;;;;;9.39;54.83;98877.56;3429800;28;20099;-72
2021/11/29 00:11:14;;;;;;;10.95;8.13;;;;;;;9.39;54.80;98868.75;3430132;28;20042;-71
2021/11/29 00:12:56;;;;;;;15.90;8.13;;;;;;;9.39;54.79;98874.09;3430665;28;20043;-70
2021/11/29 00:14:37;;;;;;;12.55;8.63;;;;;;;9.36;54.93;98864.69;3430020;28;20070;-74
2021/11/29 00:16:18;;;;;;;10.10;7.47;;;;;;;9.39;54.94;98864.25;3430009;28;20035;-73
2021/11/29 00:18:01;;;;;;;12.35;9.07;;;;;;;9.39;54.68;98863.44;3430124;28;20042;-74
2021/11/29 00:19:42;;;;;;;12.88;8.70;;;;;;;9.39;54.74;98856.28;3428957;28;20663;-71
2021/11/29 00:21:23;;;;;;;12.27;8.52;;;;;;;9.38;54.64;98851.19;3416575;28;20122;-72
2021/11/29 00:23:03;;;;;;;12.48;9.20;;;;;;;9.39;54.64;98848.31;3429273;28;20513;-72
2021/11/29 00:24:44;;;;;;;13.73;9.20;;;;;;;9.39;54.72;98840.31;3430336;28;20050;-72
2021/11/29 00:26:26;;;;;;;12.30;9.40;;;;;;;9.36;54.60;98843.41;3430624;28;20042;-74
2021/11/29 00:28:09;;;;;;;13.93;8.98;;;;;;;9.39;54.58;98844.81;3429081;28;20117;-74
2021/11/29 00:29:49;;;;;;;;;;;;;;;9.47;54.73;98839.28;3430131;28;20045;-71
2021/11/29 00:31:30;;;;;;;13.80;8.45;;;;;;;9.39;54.50;98832.34;3429228;28;19918;-73
2021/11/29 00:33:11;;;;;;;13.13;9.60;;;;;;;9.33;54.68;98830.53;3430246;28;20529;-73
2021/11/29 00:34:52;;;;;;;18.35;9.35;;;;;;;9.38;54.48;98829.91;3442669;28;20030;-73
2021/11/29 00:36:33;;;;;;;16.92;9.95;;;;;;;9.36;54.46;98837.28;3432087;28;20065;-71
2021/11/29 00:38:14;;;;;;;12.88;9.82;;;;;;;9.35;54.68;98835.66;3429549;28;20043;-72
2021/11/29 00:39:55;;;;;;;13.68;9.77;;;;;;;9.36;54.49;98831.94;3429435;28;20046;-73
2021/11/29 00:41:38;;;;;;;11.55;8.60;;;;;;;9.35;54.40;98836.47;3429740;28;20097;-72
2021/11/29 00:43:20;;;;;;;12.77;8.88;;;;;;;9.35;54.58;98836.47;3430413;28;20051;-71
2021/11/29 00:45:01;;;;;;;14.85;9.95;;;;;;;9.36;54.48;98842.59;3429764;28;20480;-71
2021/11/29 00:46:42;;;;;;;13.60;8.70;;;;;;;9.34;54.30;98832.16;3428547;28;20062;-72
2021/11/29 00:48:22;;;;;;;10.45;7.97;;;;;;;9.35;54.41;98830.34;3429591;28;20294;-70
2021/11/29 00:50:05;;;;;;;13.05;9.23;;;;;;;9.36;54.42;98827.44;3429778;28;20047;-71
2021/11/29 00:51:46;;;;;;;11.82;8.63;;;;;;;9.36;54.69;98835.41;3429386;28;20050;-71
2021/11/29 00:53:27;;;;;;;14.68;9.25;;;;;;;9.36;54.42;98826.63;3429413;28;20125;-73
2021/11/29 00:55:09;;;;;;;11.05;8.85;;;;;;;9.37;54.51;98828.25;3429663;28;20527;-74
2021/11/29 00:56:50;;;;;;;12.63;9.07;;;;;;;9.36;54.47;98824.78;3428523;28;20608;-72
2021/11/29 00:58:30;;;;;;;14.40;9.55;;;;;;;9.35;54.63;98825.00;3429107;28;20070;-71
2021/11/29 01:00:16;;;;;;;14.85;9.13;;;;;;;9.36;54.54;98831.94;3429499;28;20434;-71
2021/11/29 01:01:57;;;;;;;13.18;9.20;;;;;;;9.35;54.48;98825.00;3429513;28;20050;-71
2021/11/29 01:03:39;;;;;;;12.35;9.32;;;;;;;9.35;54.59;98831.13;3428902;28;20042;-72
2021/11/29 01:05:20;;;;;;;14.98;10.52;;;;;;;9.34;54.67;98826.03;3429681;28;20045;-71
2021/11/29 01:07:01;;;;;;;13.25;9.82;;;;;;;9.35;54.64;98823.16;3428569;28;20506;-72
2021/11/29 01:08:41;;;;;;;13.88;9.60;;;;;;;9.36;54.62;98821.31;3428703;28;20050;-72
2021/11/29 01:10:25;;;;;;;14.02;9.57;;;;;;;9.35;54.83;98817.03;3429667;28;20510;-72
2021/11/29 01:12:08;;;;;;;14.10;9.55;;;;;;;9.35;54.78;98819.69;3428103;28;20097;-72
2021/11/29 01:13:48;;;;;;;14.20;9.15;;;;;;;9.35;54.80;98815.19;3429342;28;20113;-72
2021/11/29 01:15:33;;;;;;;13.02;9.82;;;;;;;9.35;54.75;98819.69;3441681;28;20141;-72
2021/11/29 01:17:14;;;;;;;15.57;9.45;;;;;;;9.32;54.39;98799.66;3431760;28;20058;-73
2021/11/29 01:18:56;;;;;;;13.63;9.43;;;;;;;9.34;54.64;98794.09;3431305;28;20185;-71
2021/11/29 01:20:39;;;;;;;13.93;9.57;;;;;;;9.34;54.54;98802.09;3436083;28;20066;-72
2021/11/29 01:22:20;;;;;;;13.45;10.05;;;;;;;9.34;54.40;98786.13;3436303;28;20042;-74
2021/11/29 01:24:00;;;;;;;13.00;8.75;;;;;;;9.33;54.58;98784.50;3434505;28;20043;-71
2021/11/29 01:25:42;;;;;;;13.65;9.27;;;;;;;9.32;54.73;98781.03;3435502;28;20047;-72
2021/11/29 01:27:22;;;;;;;17.38;11.27;;;;;;;9.32;54.62;98775.72;3432713;28;20049;-72
2021/11/29 01:29:03;;;;;;;12.32;8.98;;;;;;;9.32;54.43;98772.22;3433136;28;20046;-73
2021/11/29 01:30:44;;;;;;;13.23;9.35;;;;;;;9.31;54.59;98765.28;3435492;28;20066;-72
2021/11/29 01:32:25;;;;;;;15.32;9.55;;;;;;;9.31;54.56;98767.94;3433847;28;20524;-73
2021/11/29 01:34:06;;;;;;;16.13;10.10;;;;;;;9.29;54.36;98772.66;3432517;28;20510;-73
2021/11/29 01:35:46;;;;;;;13.00;9.20;;;;;;;9.31;54.43;98773.25;3429676;28;20413;-72
2021/11/29 01:37:27;;;;;;;14.43;9.50;;;;;;;9.31;54.66;98773.25;3429609;28;20042;-72
2021/11/29 01:39:09;;;;;;;16.50;9.93;;;;;;;9.29;54.60;98773.47;3429557;28;20043;-73
2021/11/29 01:40:50;;;;;;;16.08;9.18;;;;;;;9.31;54.71;98765.28;3441674;28;20046;-73
2021/11/29 01:42:31;;;;;;;12.77;9.68;;;;;;;9.27;54.54;98762.25;3431027;28;20105;-72
2021/11/29 01:44:11;;;;;;;14.45;10.20;;;;;;;9.31;54.67;98762.63;3429271;28;20065;-73
2021/11/29 01:45:54;;;;;;;16.33;10.65;;;;;;;9.30;54.69;98759.16;3429379;28;20043;-73
2021/11/29 01:47:35;;;;;;;13.77;9.63;;;;;;;9.31;54.63;98755.47;3429066;28;20043;-73
2021/11/29 01:49:15;;;;;;;13.82;10.27;;;;;;;9.32;54.71;98759.75;3429233;28;20117;-72
2021/11/29 01:50:58;;;;;;;15.48;10.30;;;;;;;9.31;54.63;98757.31;3428706;28;20395;-72
2021/11/29 01:52:38;;;;;;;15.18;9.90;;;;;;;9.32;54.53;98748.28;3428981;28;20046;-72
2021/11/29 01:54:20;;;;;;;16.45;10.60;;;;;;;9.30;54.62;98748.53;3429086;28;20421;-72
2021/11/29 01:56:00;;;;;;;14.40;9.30;;;;;;;9.30;54.65;98742.38;3428912;28;20510;-72
2021/11/29 01:57:41;;;;;;;15.75;9.52;;;;;;;9.32;54.71;98742.97;3428328;28;20066;-71
2021/11/29 01:59:22;;;;;;;15.98;10.73;;;;;;;9.33;54.72;98747.28;3428858;28;20525;-72
2021/11/29 02:01:13;;;;;;;14.88;9.13;;;;;;;9.31;54.95;98744.81;3428632;28;20530;-71
2021/11/29 02:02:55;;;;;;;16.20;10.45;;;;;;;9.31;54.81;98739.50;3428987;28;20057;-72
2021/11/29 02:04:36;;;;;;;;;;;;;;;9.41;54.70;98749.69;3428343;28;20039;-73
2021/11/29 02:06:17;;;;;;;15.60;10.60;;;;;;;9.34;54.84;98739.06;3428347;28;20405;-72
2021/11/29 02:07:59;;;;;;;14.18;10.02;;;;;;;9.32;54.80;98732.34;3428769;28;20039;-72
2021/11/29 02:09:40;;;;;;;14.23;10.27;;;;;;;9.31;54.86;98736.03;3428481;28;20073;-74
2021/11/29 02:11:22;;;;;;;17.77;11.60;;;;;;;9.30;54.76;98732.56;3428391;28;20031;-74
2021/11/29 02:13:03;;;;;;;17.27;11.50;;;;;;;9.29;54.97;98735.41;3428664;28;20081;-72
2021/11/29 02:14:46;;;;;;;17.13;10.32;;;;;;;9.28;54.87;98734.59;3428388;28;20043;-74
2021/11/29 02:16:29;;;;;;;17.23;11.10;;;;;;;9.27;55.01;98734.84;3428666;28;20510;-73
2021/11/29 02:18:10;;;;;;;16.50;11.15;;;;;;;9.26;55.08;98733.19;3428715;28;20047;-72
2021/11/29 02:19:51;;;;;;;16.15;10.85;;;;;;;9.26;55.19;98735.84;3414322;28;20078;-73
2021/11/29 02:21:32;;;;;;;18.10;10.70;;;;;;;9.25;55.20;98736.88;3425245;28;20071;-74
2021/11/29 02:23:13;;;;;;;14.00;10.05;;;;;;;9.26;55.41;98733.19;3440507;28;20042;-73
2021/11/29 02:24:54;;;;;;;17.35;11.75;;;;;;;9.25;55.40;98735.03;3431089;28;20070;-73
2021/11/29 02:26:37;;;;;;;17.52;11.18;;;;;;;9.24;55.48;98722.78;3428708;28;20130;-72
2021/11/29 02:28:22;;;;;;;18.00;11.02;;;;;;;9.26;55.80;98725.22;3428608;28;20051;-72
2021/11/29 02:30:03;;;;;;;15.38;10.40;;;;;;;9.24;55.64;98724.59;3427779;28;20050;-72
2021/11/29 02:31:48;;;;;;;20.85;12.65;;;;;;;9.23;55.79;98725.63;3427793;28;20560;-73
2021/11/29 02:33:29;;;;;;;19.75;13.25;;;;;;;9.23;55.74;98733.59;3428424;28;20395;-71
2021/11/29 02:35:10;;;;;;;22.48;13.45;;;;;;;9.20;56.09;98715.44;3427491;28;20045;-72
2021/11/29 02:36:52;;;;;;;21.85;14.02;;;;;;;9.22;56.01;98711.53;3428423;28;20043;-72
2021/11/29 02:38:33;;;;;;;22.17;13.85;;;;;;;9.25;56.06;98712.97;3428559;28;20134;-71
2021/11/29 02:40:13;;;;;;;21.23;13.75;;;;;;;9.24;55.88;98712.16;3428414;28;20077;-72
2021/11/29 02:41:57;;;;;;;21.98;14.23;;;;;;;9.23;56.13;98705.19;3428334;28;20061;-72
2021/11/29 02:43:38;;;;;;;27.83;13.88;;;;;;;9.23;56.08;98709.69;3428446;28;20074;-71
2021/11/29 02:45:18;;;;;;;26.27;14.68;;;;;;;9.22;56.26;98713.38;3428409;28;20038;-72
2021/11/29 02:47:00;;;;;;;22.45;14.63;;;;;;;9.20;56.23;98712.75;3428228;28;20042;-70
2021/11/29 02:48:46;;;;;;;25.02;15.30;;;;;;;9.21;56.29;98723.16;3428607;28;20074;-70
2021/11/29 02:50:26;;;;;;;24.90;15.13;;;;;;;9.20;56.30;98720.75;3427555;28;20093;-70
2021/11/29 02:52:10;;;;;;;21.83;14.10;;;;;;;9.16;56.39;98721.16;3427708;28;20035;-71
2021/11/29 02:53:55;;;;;;;24.27;14.18;;;;;;;9.18;56.40;98720.94;3428294;28;20039;-71
2021/11/29 02:55:38;;;;;;;23.60;15.13;;;;;;;9.16;56.45;98710.53;3428359;28;20391;-71
2021/11/29 02:57:21;;;;;;;23.45;15.73;;;;;;;9.01;56.41;98683.38;3428329;28;20108;-71
2021/11/29 02:59:02;;;;;;;30.98;15.93;;;;;;;9.16;56.31;98710.53;3428390;28;20458;-71
2021/11/29 03:00:42;;;;;;;24.60;15.77;;;;;;;9.18;56.52;98708.47;3428087;28;20085;-72
2021/11/29 03:02:23;;;;;;;25.23;15.75;;;;;;;9.18;56.42;98703.13;3427780;28;20043;-70
2021/11/29 03:04:04;;;;;;;26.90;16.45;;;;;;;9.18;56.46;98710.31;3427957;28;20457;-71
2021/11/29 03:05:47;;;;;;;28.17;15.63;;;;;;;9.18;56.43;98705.81;3428408;28;20077;-73
2021/11/29 03:07:27;;;;;;;28.15;16.42;;;;;;;9.18;56.62;98705.81;3428350;28;20282;-73
2021/11/29 03:09:08;;;;;;;25.75;14.80;;;;;;;9.17;56.77;98696.19;3428166;28;20063;-73
2021/11/29 03:10:49;;;;;;;27.27;15.88;;;;;;;9.16;56.75;98697.25;3428289;28;20039;-73
2021/11/29 03:12:29;;;;;;;27.10;16.45;;;;;;;9.15;56.70;98698.25;3427872;28;20522;-71
2021/11/29 03:14:11;;;;;;;24.33;14.45;;;;;;;9.16;56.86;98694.59;3428138;28;20047;-71
2021/11/29 03:15:51;;;;;;;26.05;16.75;;;;;;;9.16;56.78;98696.41;3428119;28;20189;-73
2021/11/29 03:17:32;;;;;;;25.48;15.40;;;;;;;9.15;56.98;98692.13;3427927;28;20050;-71
2021/11/29 03:19:13;;;;;;;31.08;16.88;;;;;;;9.15;56.89;98692.94;3427344;28;20514;-72
2021/11/29 03:20:53;;;;;;;29.25;16.00;;;;;;;9.13;57.12;98689.66;3427973;28;20042;-72
2021/11/29 03:22:34;;;;;;;23.63;15.00;;;;;;;9.11;57.34;98685.59;3427876;28;20047;-72
2021/11/29 03:24:15;;;;;;;29.45;15.55;;;;;;;9.12;57.10;98680.06;3428179;28;20066;-72
2021/11/29 03:25:57;;;;;;;21.33;13.70;;;;;;;9.11;57.43;98686.41;3430273;28;20046;-72
2021/11/29 03:27:39;;;;;;;20.15;13.55;;;;;;;9.09;57.41;98688.47;3429479;28;20035;-72
2021/11/29 03:29:20;;;;;;;24.88;13.88;;;;;;;9.09;57.33;98693.78;3430699;28;20122;-74
2021/11/29 03:31:01;;;;;;;27.45;15.00;;;;;;;9.11;57.25;98691.75;3430843;28;20129;-73
2021/11/29 03:32:43;;;;;;;28.77;15.70;;;;;;;9.11;57.20;98694.41;3430255;28;20521;-75
2021/11/29 03:34:24;;;;;;;;;;;;;;;9.21;57.14;98693.94;3431150;28;20046;-71
2021/11/29 03:36:05;;;;;;;24.85;14.70;;;;;;;9.14;57.22;98693.16;3431025;28;20032;-74
2021/11/29 03:37:46;;;;;;;23.25;14.75;;;;;;;9.12;57.39;98682.72;3442990;28;20038;-74
2021/11/29 03:39:29;;;;;;;25.95;15.60;;;;;;;9.10;57.48;98682.13;3433094;28;20082;-73
2021/11/29 03:41:10;;;;;;;27.02;15.50;;;;;;;9.10;57.37;98690.09;3430682;28;20105;-72
2021/11/29 03:42:51;;;;;;;24.88;15.35;;;;;;;9.10;57.50;98689.28;3429123;28;20039;-75
2021/11/29 03:44:33;;;;;;;27.58;15.20;;;;;;;9.10;57.59;98679.44;3426930;28;20050;-73
2021/11/29 03:46:14;;;;;;;25.17;15.63;;;;;;;9.10;57.58;98679.44;3429835;28;20047;-73
2021/11/29 03:47:55;;;;;;;24.58;14.07;;;;;;;9.08;57.62;98668.22;3430574;28;20965;-71
2021/11/29 03:49:35;;;;;;;28.95;17.05;;;;;;;9.09;57.63;98671.72;3430541;28;20557;-71
2021/11/29 03:51:16;;;;;;;24.17;14.68;;;;;;;9.09;57.76;98664.53;3430565;28;20042;-73
2021/11/29 03:52:57;;;;;;;27.52;15.73;;;;;;;9.09;57.67;98669.84;3430189;28;20038;-73
2021/11/29 03:54:38;;;;;;;23.88;16.13;;;;;;;9.10;57.78;98674.13;3429302;28;20145;-73
2021/11/29 03:56:18;;;;;;;25.88;14.15;;;;;;;9.10;57.68;98668.00;3442741;28;20046;-72
2021/11/29 03:57:59;;;;;;;27.45;15.63;;;;;;;9.09;57.90;98663.72;3432886;28;20039;-73
2021/11/29 03:59:40;;;;;;;22.17;15.45;;;;;;;9.09;57.93;98672.53;3430476;28;20039;-72
2021/11/29 04:01:21;;;;;;;25.05;14.95;;;;;;;9.08;57.84;98668.22;3430299;28;20050;-72
2021/11/29 04:03:01;;;;;;;26.83;15.00;;;;;;;9.10;58.06;98662.69;3429791;28;20049;-72
2021/11/29 04:04:42;;;;;;;25.75;16.67;;;;;;;9.09;58.11;98671.72;3430302;28;20410;-73
2021/11/29 04:06:23;;;;;;;22.55;14.73;;;;;;;9.09;58.19;98661.06;3430257;28;20123;-73
2021/11/29 04:08:04;;;;;;;22.23;14.38;;;;;;;9.07;58.30;98653.31;3430203;28;20113;-72
2021/11/29 04:09:45;;;;;;;25.02;15.80;;;;;;;9.09;58.22;98656.56;3430054;28;20057;-72
2021/11/29 04:11:26;;;;;;;23.45;13.27;;;;;;;9.09;58.34;98651.25;3429157;28;20070;-73
2021/11/29 04:13:07;;;;;;;23.75;14.27;;;;;;;9.09;58.28;98661.06;3429403;28;20556;-72
2021/11/29 04:14:48;;;;;;;26.73;15.35;;;;;;;9.09;58.08;98653.91;3429534;28;20026;-72
2021/11/29 04:16:28;;;;;;;23.58;14.55;;;;;;;9.11;58.24;98651.88;3430260;28;20170;-73
2021/11/29 04:18:11;;;;;;;26.70;15.85;;;;;;;9.11;58.36;98651.88;3430217;28;20081;-74
2021/11/29 04:19:51;;;;;;;22.83;14.23;;;;;;;9.11;58.27;98654.53;3430371;28;20053;-73
2021/11/29 04:21:32;;;;;;;27.30;15.15;;;;;;;9.14;58.12;98661.25;3430100;28;20046;-73
2021/11/29 04:23:13;;;;;;;21.35;14.45;;;;;;;9.13;58.14;98663.09;3429612;28;20049;-74
2021/11/29 04:24:57;;;;;;;22.13;13.93;;;;;;;9.14;58.32;98653.28;3429921;28;20038;-74
2021/11/29 04:26:39;;;;;;;22.05;15.02;;;;;;;9.12;58.36;98655.34;3430205;28;20041;-73
2021/11/29 04:28:20;;;;;;;22.85;13.90;;;;;;;9.12;58.45;98666.78;3430464;28;20042;-73
2021/11/29 04:30:09;;;;;;;25.60;13.40;;;;;;;9.12;58.30;98661.47;3429748;28;20104;-72
2021/11/29 04:31:49;;;;;;;25.42;14.00;;;;;;;9.13;58.43;98656.94;3416558;28;20050;-72
2021/11/29 04:33:30;;;;;;;26.65;14.93;;;;;;;9.12;58.39;98647.34;3424856;28;20564;-75
2021/11/29 04:35:11;;;;;;;19.08;13.38;;;;;;;9.12;58.60;98653.47;3430032;28;20043;-73
2021/11/29 04:36:52;;;;;;;22.42;13.95;;;;;;;9.11;58.71;98649.22;3429064;28;20133;-72
2021/11/29 04:38:33;;;;;;;23.23;13.65;;;;;;;9.12;58.71;98642.03;3429887;28;20050;-73
2021/11/29 04:40:14;;;;;;;21.30;13.93;;;;;;;9.12;58.87;98636.72;3429869;28;20053;-73
2021/11/29 04:41:54;;;;;;;22.13;14.85;;;;;;;9.13;58.81;98641.00;3428783;28;20054;-73
2021/11/29 04:43:35;;;;;;;24.60;14.48;;;;;;;9.14;59.10;98637.34;3429296;28;20038;-72
2021/11/29 04:45:16;;;;;;;24.55;14.27;;;;;;;9.14;59.12;98635.50;3427972;28;20034;-72
2021/11/29 04:46:56;;;;;;;24.30;14.38;;;;;;;9.14;59.15;98632.03;3429957;28;20046;-70
2021/11/29 04:48:37;;;;;;;23.55;14.45;;;;;;;9.15;58.93;98626.47;3429729;28;20046;-70
2021/11/29 04:50:18;;;;;;;28.70;14.20;;;;;;;9.17;58.89;98631.59;3428283;28;20526;-70
2021/11/29 04:51:59;;;;;;;23.95;13.73;;;;;;;9.17;59.09;98632.41;3429434;28;20047;-70
2021/11/29 04:53:41;;;;;;;21.75;14.45;;;;;;;9.16;58.96;98630.78;3429277;28;20035;-69
2021/11/29 04:55:22;;;;;;;26.35;14.30;;;;;;;9.16;59.06;98636.09;3429927;28;20047;-70
2021/11/29 04:57:03;;;;;;;21.55;13.68;;;;;;;9.16;59.43;98636.09;3429605;28;20039;-72
2021/11/29 04:58:44;;;;;;;25.83;14.00;;;;;;;9.16;59.25;98630.78;3429604;28;20070;-70
2021/11/29 05:00:25;;;;;;;23.55;14.80;;;;;;;9.15;59.27;98631.78;3428754;28;21769;-71
2021/11/29 05:02:05;;;;;;;22.08;13.88;;;;;;;9.15;59.73;98634.44;3426905;28;20422;-69
2021/11/29 05:03:46;;;;;;;21.25;12.70;;;;;;;9.16;59.58;98636.09;3439829;28;20052;-77
2021/11/29 05:05:27;;;;;;;22.17;13.20;;;;;;;9.15;59.57;98630.97;3431575;28;20087;-76
2021/11/29 05:07:08;;;;;;;22.63;13.43;;;;;;;9.20;60.03;98631.16;3428140;28;20046;-74
2021/11/29 05:08:48;;;;;;;23.80;12.48;;;;;;;9.29;60.22;98627.25;3429137;28;20129;-75
2021/11/29 05:10:29;;;;;;;17.98;10.30;;;;;;;9.46;61.47;98616.91;3428189;28;20039;-74
2021/11/29 05:12:14;;;;;;;23.48;10.70;;;;;;;9.61;62.34;98622.75;3428545;28;20042;-76
2021/11/29 05:13:55;;;;;;;24.27;12.20;;;;;;;9.74;62.17;98618.38;3429151;28;20176;-75
2021/11/29 05:15:36;;;;;;;24.58;13.40;;;;;;;9.83;61.65;98627.72;3428458;28;20138;-74
2021/11/29 05:17:18;;;;;;;21.10;12.02;;;;;;;9.91;61.27;98624.78;3429253;28;20074;-73
2021/11/29 05:18:59;;;;;;;24.85;13.70;;;;;;;9.95;61.26;98622.53;3428930;28;20054;-74
2021/11/29 05:20:39;;;;;;;18.02;10.07;;;;;;;10.03;62.32;98620.41;3429049;28;20502;-73
2021/11/29 05:22:21;;;;;;;17.60;11.73;;;;;;;10.13;61.73;98619.09;3429011;28;20050;-74
2021/11/29 05:24:02;;;;;;;21.45;12.25;;;;;;;10.14;61.16;98615.41;3428523;28;20085;-76
2021/11/29 05:25:44;;;;;;;22.45;12.07;;;;;;;10.22;61.21;98612.44;3429574;28;20042;-76
2021/11/29 05:27:24;;;;;;;21.98;12.70;;;;;;;10.26;60.94;98614.47;3428257;28;20138;-76
2021/11/29 05:29:05;;;;;;;19.85;12.05;;;;;;;10.30;60.94;98614.88;3425287;28;20050;-74
2021/11/29 05:30:46;;;;;;;23.20;12.70;;;;;;;10.32;60.99;98612.00;3425274;28;20470;-74
2021/11/29 05:32:27;;;;;;;12.52;8.50;;;;;;;10.37;62.08;98610.28;3428370;28;20066;-74
2021/11/29 05:34:08;;;;;;;22.42;12.63;;;;;;;10.45;62.36;98612.69;3441389;28;20074;-74
2021/11/29 05:35:48;;;;;;;20.80;12.48;;;;;;;10.51;61.96;98604.81;3431634;28;20093;-78
2021/11/29 05:37:29;;;;;;;25.10;14.30;;;;;;;10.57;61.46;98606.63;3415017;29;20047;-75
2021/11/29 05:39:10;;;;;;;22.63;12.93;;;;;;;10.60;61.08;98600.84;3426521;28;20048;-76
2021/11/29 05:40:51;;;;;;;28.70;16.55;;;;;;;10.61;61.05;98595.31;3429110;28;20591;-74
2021/11/29 05:42:31;;;;;;;27.60;14.65;;;;;;;10.60;61.00;98593.66;3428337;28;20042;-72
2021/11/29 05:44:14;;;;;;;24.60;10.98;;;;;;;10.71;63.77;98597.44;3427137;28;20066;-73
2021/11/29 05:45:56;;;;;;;22.67;12.98;;;;;;;10.80;63.19;98609.44;3428536;28;20510;-73
2021/11/29 05:47:37;;;;;;;22.88;13.52;;;;;;;10.83;62.33;98598.31;3429119;28;20125;-74
2021/11/29 05:49:18;;;;;;;18.77;9.43;;;;;;;10.89;63.21;98594.78;3428142;28;20525;-77
2021/11/29 05:51:00;;;;;;;14.95;9.23;;;;;;;10.98;64.13;98594.47;3429202;28;20043;-77
2021/11/29 05:52:41;;;;;;;;;;;;;;;11.17;63.85;98593.41;3429406;28;20151;-69
2021/11/29 05:54:22;;;;;;;23.30;12.18;;;;;;;11.32;63.04;98593.81;3428694;28;20317;-70
2021/11/29 05:56:04;;;;;;;24.00;12.75;;;;;;;11.38;62.19;98591.28;3428603;28;20077;-71
2021/11/29 05:57:45;;;;;;;14.88;9.02;;;;;;;11.48;62.76;98594.22;3426819;28;20391;-71
2021/11/29 05:59:26;;;;;;;19.23;11.48;;;;;;;11.53;62.35;98586.34;3428355;28;20094;-71
2021/11/29 06:01:06;;;;;;;17.40;9.00;;;;;;;11.65;62.77;98584.53;3428475;28;20524;-71
2021/11/29 06:02:47;;;;;;;25.55;13.20;;;;;;;11.75;62.33;98574.09;3428434;28;20039;-71
2021/11/29 06:04:28;;;;;;;24.25;14.23;;;;;;;11.77;61.20;98573.84;3429085;28;20112;-71
2021/11/29 06:06:09;;;;;;;21.73;12.27;;;;;;;11.77;60.91;98574.69;3429035;28;20050;-72
2021/11/29 06:07:50;;;;;;;19.30;11.85;;;;;;;11.75;60.34;98567.94;3428768;28;20093;-70
2021/11/29 06:09:31;;;;;;;23.33;13.03;;;;;;;11.70;60.19;98575.84;3440693;28;20053;-72
2021/11/29 06:11:11;;;;;;;26.77;13.48;;;;;;;11.60;60.08;98564.91;3431090;28;20042;-70
2021/11/29 06:12:52;;;;;;;23.70;12.70;;;;;;;11.52;59.95;98568.72;3428220;28;20628;-71
2021/11/29 06:14:33;;;;;;;21.95;13.60;;;;;;;11.45;59.66;98560.00;3428180;28;20042;-72
2021/11/29 06:16:13;;;;;;;24.05;14.95;;;;;;;11.40;59.86;98558.00;3427077;28;20545;-71
2021/11/29 06:17:54;;;;;;;22.02;12.75;;;;;;;11.41;59.76;98556.13;3428392;28;20051;-71
2021/11/29 06:19:35;;;;;;;19.75;12.93;;;;;;;11.41;59.62;98564.97;3428162;28;20062;-71
2021/11/29 06:21:16;;;;;;;24.30;13.75;;;;;;;11.41;59.57;98558.81;3428181;28;20133;-71
2021/11/29 06:22:59;;;;;;;22.35;12.95;;;;;;;11.38;59.38;98559.25;3440571;28;20343;-71
2021/11/29 06:24:40;;;;;;;25.48;13.05;;;;;;;11.35;59.28;98553.34;3430473;28;20046;-70
2021/11/29 06:26:21;;;;;;;21.83;13.43;;;;;;;11.31;59.35;98551.38;3427385;28;20089;-70
2021/11/29 06:28:02;;;;;;;27.02;15.38;;;;;;;11.28;59.28;98546.47;3427940;28;20035;-73
2021/11/29 06:29:44;;;;;;;22.90;14.02;;;;;;;11.22;59.41;98548.19;3428255;28;20088;-72
2021/11/29 06:31:25;;;;;;;24.48;14.35;;;;;;;11.21;59.32;98540.44;3427410;28;20050;-71
2021/11/29 06:33:06;;;;;;;23.73;13.43;;;;;;;11.21;59.34;98546.59;3428258;28;20565;-70
2021/11/29 06:34:47;;;;;;;26.40;13.20;;;;;;;11.23;59.37;98552.50;3428171;28;20042;-70
2021/11/29 06:36:29;;;;;;;20.27;12.75;;;;;;;11.30;59.19;98544.41;3428203;28;20042;-72
2021/11/29 06:38:09;;;;;;;23.33;14.15;;;;;;;11.34;59.06;98543.72;3429031;28;20148;-71
2021/11/29 06:39:50;;;;;;;28.10;13.77;;;;;;;11.33;58.98;98539.44;3430039;28;20074;-70
2021/11/29 06:41:31;;;;;;;24.02;12.95;;;;;;;11.31;58.93;98538.03;3427434;28;20552;-70
2021/11/29 06:43:12;;;;;;;25.20;13.75;;;;;;;11.29;59.01;98543.59;3427809;28;20054;-70
2021/11/29 06:44:53;;;;;;;21.00;12.68;;;;;;;11.23;59.14;98539.19;3414401;28;20039;-70
2021/11/29 06:46:34;;;;;;;16.00;10.03;;;;;;;11.33;59.35;98543.94;3425738;28;20038;-72
2021/11/29 06:48:15;;;;;;;22.75;11.95;;;;;;;11.38;59.16;98538.72;3427825;28;20345;-71
2021/11/29 06:49:55;;;;;;;16.27;10.63;;;;;;;11.48;59.86;98541.66;3428389;28;20062;-71
2021/11/29 06:51:36;;;;;;;15.60;8.48;;;;;;;11.66;60.25;98548.78;3428115;28;20098;-70
2021/11/29 06:53:17;;;;;;;20.15;11.63;;;;;;;11.81;59.81;98539.53;3427518;28;20129;-71
2021/11/29 06:54:57;;;;;;;17.85;12.00;;;;;;;11.91;59.05;98539.78;3428086;28;20130;-71
2021/11/29 06:56:38;;;;;;;25.40;13.55;;;;;;;11.92;58.56;98544.88;3428325;28;20410;-71
2021/11/29 06:58:19;;;;;;;23.55;12.77;;;;;;;11.86;58.34;98531.63;3428179;28;20382;-71
2021/11/29 06:59:59;;;;;;;22.13;12.43;;;;;;;11.80;58.27;98533.38;3428761;28;20073;-72
2021/11/29 07:01:40;;;;;;;24.60;13.93;;;;;;;11.71;58.09;98540.09;3430579;28;20131;-72
2021/11/29 07:03:21;;;;;;;22.52;12.80;;;;;;;11.67;57.99;98536.22;3430374;28;20540;-72
2021/11/29 07:05:02;;;;;;;15.35;9.38;;;;;;;11.69;58.68;98532.28;3430574;28;20149;-72
2021/11/29 07:06:44;;;;;;;14.00;7.55;;;;;;;11.82;59.07;98522.44;3430610;28;20043;-71
2021/11/29 07:08:24;;;;;;;15.20;9.38;;;;;;;11.96;58.91;98519.34;3430801;28;20049;-70
2021/11/29 07:10:06;;;;;;;22.55;11.48;;;;;;;12.08;58.76;98521.19;3430432;28;20469;-71
2021/11/29 07:11:47;;;;;;;;;;;;;;;12.21;58.45;98519.13;3431067;28;20569;-70
2021/11/29 07:13:28;;;;;;;20.98;12.18;;;;;;;12.19;57.78;98517.72;3428620;28;19992;-71
2021/11/29 07:15:10;;;;;;;21.60;11.63;;;;;;;12.14;57.66;98514.94;3426723;28;20050;-71
2021/11/29 07:16:51;;;;;;;17.85;10.27;;;;;;;12.13;58.15;98521.31;3430854;28;20134;-71
2021/11/29 07:18:31;;;;;;;25.98;12.45;;;;;;;12.14;57.99;98521.09;3431174;28;20039;-71
2021/11/29 07:20:12;;;;;;;18.40;9.90;;;;;;;12.18;57.96;98508.91;3429919;28;20069;-71
2021/11/29 07:21:53;;;;;;;15.88;10.27;;;;;;;12.22;57.89;98510.03;3429904;28;20134;-71
2021/11/29 07:23:35;;;;;;;15.68;9.13;;;;;;;12.23;57.81;98506.31;3430651;28;20078;-71
2021/11/29 07:25:16;;;;;;;13.07;8.73;;;;;;;12.31;58.00;98507.00;3430463;28;20391;-71
2021/11/29 07:26:57;;;;;;;14.27;8.20;;;;;;;12.44;58.05;98512.09;3430398;28;20042;-72
2021/11/29 07:28:38;;;;;;;21.30;11.80;;;;;;;12.54;57.47;98511.50;3430177;28;20039;-72
2021/11/29 07:30:21;;;;;;;18.77;10.85;;;;;;;12.55;56.94;98500.59;3428958;28;20035;-71
2021/11/29 07:32:02;;;;;;;18.40;11.18;;;;;;;12.50;56.81;98488.97;3429927;28;20042;-70
2021/11/29 07:33:42;;;;;;;20.88;12.20;;;;;;;12.42;56.71;98508.88;3430450;28;20422;-71
2021/11/29 07:35:28;;;;;;;13.65;8.32;;;;;;;12.40;57.53;98489.59;3429992;28;20039;-71
2021/11/29 07:37:09;;;;;;;20.52;11.50;;;;;;;12.40;57.10;98489.59;3429733;28;20042;-71
2021/11/29 07:38:49;;;;;;;22.83;10.45;;;;;;;12.40;56.98;98494.94;3430056;28;20513;-71
2021/11/29 07:40:31;;;;;;;17.23;10.13;;;;;;;12.41;57.08;98491.19;3430499;28;20043;-71
2021/11/29 07:42:13;;;;;;;26.50;12.98;;;;;;;12.44;56.89;98491.56;3430541;28;20046;-70
2021/11/29 07:43:55;;;;;;;19.25;10.95;;;;;;;12.42;56.72;98488.31;3427995;28;20042;-69
2021/11/29 07:45:38;;;;;;;19.92;11.65;;;;;;;12.34;56.53;98485.16;3429321;28;20462;-72
2021/11/29 07:47:18;;;;;;;15.15;9.85;;;;;;;12.32;57.25;98479.25;3427576;28;20525;-70
2021/11/29 07:49:00;;;;;;;13.00;8.73;;;;;;;12.37;57.70;98474.03;3429066;28;20035;-69
2021/11/29 07:50:41;;;;;;;22.35;12.65;;;;;;;12.39;57.34;98474.56;3429415;28;20089;-73
2021/11/29 07:52:21;;;;;;;19.90;12.27;;;;;;;12.38;56.91;98476.44;3429208;28;20394;-71